createdAt,value
2019-04-26T00:00:47.304Z,13.38
2019-04-26T00:03:18.505Z,12.70
2019-04-26T00:05:47.360Z,13.18
2019-04-26T00:08:16.202Z,13.20
2019-04-26T00:10:55.427Z,13.53
2019-04-26T00:13:42.234Z,13.95
2019-04-26T00:16:27.957Z,12.80
2019-04-26T00:18:56.793Z,13.65
2019-04-26T00:21:25.648Z,14.00
2019-04-26T00:23:54.805Z,13.65
2019-04-26T00:26:23.932Z,13.85
2019-04-26T00:28:52.774Z,13.70
2019-04-26T00:31:21.600Z,13.93
2019-04-26T00:33:50.434Z,14.80
2019-04-26T00:36:19.204Z,13.93
2019-04-26T00:38:47.967Z,13.55
2019-04-26T00:41:17.102Z,13.60
2019-04-26T00:43:46.071Z,13.78
2019-04-26T00:46:16.774Z,15.23
2019-04-26T00:48:46.008Z,14.20
2019-04-26T00:51:15.343Z,14.03
2019-04-26T00:53:46.079Z,14.60
2019-04-26T00:56:15.939Z,13.83
2019-04-26T00:58:44.766Z,13.80
2019-04-26T01:01:15.214Z,15.10
2019-04-26T01:03:44.948Z,14.25
2019-04-26T01:06:15.987Z,14.83
2019-04-26T01:08:45.891Z,16.12
2019-04-26T01:11:15.302Z,16.65
2019-04-26T01:13:45.208Z,16.93
2019-04-26T01:16:14.048Z,16.75
2019-04-26T01:18:45.090Z,16.03
2019-04-26T01:21:18.472Z,17.05
2019-04-26T01:23:50.625Z,15.95
2019-04-26T01:26:28.143Z,16.00
2019-04-26T01:29:02.457Z,17.25
2019-04-26T01:31:34.234Z,16.07
2019-04-26T01:34:03.362Z,15.45
2019-04-26T01:36:33.824Z,15.70
2019-04-26T01:39:07.173Z,15.88
2019-04-26T01:41:39.283Z,14.70
2019-04-26T01:44:16.301Z,14.70
2019-04-26T01:46:46.815Z,14.98
2019-04-26T01:49:17.048Z,14.15
2019-04-26T01:51:57.553Z,12.68
2019-04-26T01:54:29.875Z,13.70
2019-04-26T01:57:01.808Z,13.80
2019-04-26T01:59:31.514Z,14.28
2019-04-26T02:02:04.682Z,13.55
2019-04-26T02:04:35.172Z,14.43
2019-04-26T02:07:04.612Z,13.62
2019-04-26T02:09:33.440Z,13.43
2019-04-26T02:12:02.914Z,13.53
2019-04-26T02:14:31.747Z,13.38
2019-04-26T02:17:21.362Z,13.20
2019-04-26T02:19:50.385Z,13.08
2019-04-26T02:22:20.791Z,13.03
2019-04-26T02:24:51.207Z,12.70
2019-04-26T02:27:28.304Z,12.13
2019-04-26T02:29:57.556Z,13.00
2019-04-26T02:32:28.831Z,14.20
2019-04-26T02:34:57.892Z,13.83
2019-04-26T02:37:28.890Z,14.00
2019-04-26T02:39:58.049Z,13.28
2019-04-26T02:42:41.709Z,13.60
2019-04-26T02:45:20.806Z,12.00
2019-04-26T02:47:53.373Z,13.00
2019-04-26T02:50:28.292Z,12.80
2019-04-26T02:53:19.399Z,11.12
2019-04-26T02:55:54.118Z,12.58
2019-04-26T02:58:25.899Z,12.47
2019-04-26T03:00:56.597Z,12.63
2019-04-26T03:03:25.853Z,13.60
2019-04-26T03:05:55.817Z,12.73
2019-04-26T03:08:27.248Z,13.65
2019-04-26T03:10:59.030Z,12.95
2019-04-26T03:13:34.313Z,13.83
2019-04-26T03:16:24.336Z,13.22
2019-04-26T03:19:00.569Z,13.83
2019-04-26T03:21:41.127Z,13.43
2019-04-26T03:24:27.903Z,12.75
2019-04-26T03:27:02.174Z,12.82
2019-04-26T03:29:37.600Z,12.73
2019-04-26T03:32:16.666Z,12.53
2019-04-26T03:34:57.074Z,14.00
2019-04-26T03:37:37.568Z,13.08
2019-04-26T03:40:16.873Z,13.78
2019-04-26T03:43:08.068Z,13.18
2019-04-26T03:45:58.204Z,13.28
2019-04-26T03:48:55.904Z,12.60
2019-04-26T03:51:45.709Z,13.60
2019-04-26T03:56:51.162Z,13.10
2019-04-26T03:59:27.322Z,13.10
2019-04-26T04:02:06.198Z,13.35
2019-04-26T04:04:46.444Z,13.33
2019-04-26T04:07:18.583Z,13.80
2019-04-26T04:09:50.373Z,13.95
2019-04-26T04:12:24.982Z,13.45
2019-04-26T04:15:09.093Z,13.93
2019-04-26T04:17:50.710Z,13.78
2019-04-26T04:20:26.874Z,12.88
2019-04-26T04:23:10.681Z,13.68
2019-04-26T04:25:43.809Z,13.65
2019-04-26T04:28:32.353Z,15.00
2019-04-26T04:31:06.774Z,14.47
2019-04-26T04:33:45.739Z,14.38
2019-04-26T04:36:36.372Z,15.20
2019-04-26T04:39:38.659Z,15.75
2019-04-26T04:42:29.661Z,15.95
2019-04-26T04:45:23.522Z,15.70
2019-04-26T04:48:18.087Z,16.10
2019-04-26T04:51:14.408Z,17.12
2019-04-26T04:54:03.777Z,17.20
2019-04-26T04:56:58.132Z,17.37
2019-04-26T04:59:46.050Z,17.07
2019-04-26T05:05:20.839Z,18.05
2019-04-26T05:08:06.636Z,18.27
2019-04-26T05:10:44.281Z,18.12
2019-04-26T05:13:40.377Z,18.65
2019-04-26T05:16:34.824Z,18.05
2019-04-26T05:19:38.644Z,19.50
2019-04-26T05:22:19.350Z,18.95
2019-04-26T05:25:03.363Z,18.95
2019-04-26T05:27:52.916Z,20.20
2019-04-26T05:33:13.916Z,20.43
2019-04-26T05:36:04.987Z,20.62
2019-04-26T05:38:49.372Z,19.12
2019-04-26T05:41:55.664Z,20.48
2019-04-26T05:44:40.915Z,19.92
2019-04-26T05:47:36.577Z,20.32
2019-04-26T05:50:32.049Z,19.65
2019-04-26T05:53:08.051Z,21.55
2019-04-26T05:55:56.051Z,19.67
2019-04-26T05:58:45.602Z,21.48
2019-04-26T06:01:53.319Z,20.80
2019-04-26T06:04:52.482Z,22.98
2019-04-26T06:07:38.654Z,22.95
2019-04-26T06:10:14.854Z,25.40
2019-04-26T06:12:51.156Z,23.98
2019-04-26T06:15:33.405Z,25.23
2019-04-26T06:18:15.012Z,24.90
2019-04-26T06:20:49.345Z,25.27
2019-04-26T06:23:26.916Z,23.07
2019-04-26T06:26:28.451Z,24.23
2019-04-26T06:29:07.019Z,24.15
2019-04-26T06:32:06.068Z,24.52
2019-04-26T06:35:12.497Z,25.17
2019-04-26T06:37:51.767Z,24.82
2019-04-26T06:40:46.185Z,24.15
2019-04-26T06:43:19.532Z,24.67
2019-04-26T06:45:58.675Z,24.30
2019-04-26T06:48:59.340Z,24.95
2019-04-26T06:51:36.915Z,25.80
2019-04-26T06:54:15.740Z,24.57
2019-04-26T06:56:49.076Z,27.70
2019-04-26T06:59:36.557Z,29.18
2019-04-26T07:02:17.231Z,26.35
2019-04-26T07:04:59.168Z,27.40
2019-04-26T07:07:59.995Z,26.00
2019-04-26T07:10:43.951Z,25.85
2019-04-26T07:13:39.064Z,27.07
2019-04-26T07:16:23.198Z,24.90
2019-04-26T07:19:05.664Z,24.52
2019-04-26T07:22:12.690Z,23.15
2019-04-26T07:25:03.562Z,24.45
2019-04-26T07:28:03.236Z,22.85
2019-04-26T07:30:40.374Z,22.40
2019-04-26T07:33:12.640Z,24.52
2019-04-26T07:36:10.194Z,22.52
2019-04-26T07:39:10.554Z,23.07
2019-04-26T07:41:51.333Z,23.22
2019-04-26T07:44:43.191Z,22.45
2019-04-26T07:47:46.474Z,23.02
2019-04-26T07:50:43.210Z,22.15
2019-04-26T07:53:29.602Z,22.00
2019-04-26T07:56:24.224Z,22.02
2019-04-26T07:59:12.890Z,21.20
2019-04-26T08:01:52.550Z,21.67
2019-04-26T08:04:34.422Z,21.17
2019-04-26T08:07:13.245Z,20.15
2019-04-26T08:09:47.293Z,20.45
2019-04-26T08:12:18.549Z,18.75
2019-04-26T08:14:54.716Z,20.25
2019-04-26T08:17:28.090Z,18.05
2019-04-26T08:20:31.942Z,18.12
2019-04-26T08:23:09.071Z,18.60
2019-04-26T08:25:36.826Z,16.62
2019-04-26T08:28:08.444Z,17.05
2019-04-26T08:30:40.669Z,15.53
2019-04-26T08:33:18.078Z,17.10
2019-04-26T08:35:52.953Z,14.85
2019-04-26T08:38:22.739Z,14.73
2019-04-26T08:40:52.446Z,12.82
2019-04-26T08:43:40.323Z,13.05
2019-04-26T08:46:15.435Z,13.50
2019-04-26T08:48:52.596Z,13.20
2019-04-26T08:51:23.943Z,13.18
2019-04-26T08:53:55.980Z,13.25
2019-04-26T08:56:34.793Z,13.03
2019-04-26T08:59:21.605Z,12.73
2019-04-26T09:02:09.652Z,11.53
2019-04-26T09:04:42.988Z,10.55
2019-04-26T09:07:18.906Z,11.25
2019-04-26T09:10:01.239Z,10.78
2019-04-26T09:12:30.053Z,10.70
2019-04-26T09:15:01.817Z,9.90
2019-04-26T09:17:32.371Z,9.78
2019-04-26T09:20:07.152Z,10.40
2019-04-26T09:22:51.507Z,9.93
2019-04-26T09:25:34.603Z,9.25
2019-04-26T09:28:06.850Z,9.98
2019-04-26T09:30:38.446Z,9.45
2019-04-26T09:33:18.442Z,10.20
2019-04-26T09:35:47.315Z,10.32
2019-04-26T09:38:16.074Z,9.88
2019-04-26T09:40:44.939Z,9.38
2019-04-26T09:43:16.696Z,9.00
2019-04-26T09:45:59.246Z,8.58
2019-04-26T09:48:29.630Z,8.20
2019-04-26T09:51:00.053Z,8.33
2019-04-26T09:53:28.861Z,7.90
2019-04-26T09:55:57.634Z,8.38
2019-04-26T09:58:26.910Z,7.70
2019-04-26T10:00:57.153Z,8.30
2019-04-26T10:03:25.920Z,7.72
2019-04-26T10:05:55.812Z,8.63
2019-04-26T10:08:25.275Z,8.68
2019-04-26T10:10:54.038Z,7.85
2019-04-26T10:13:41.027Z,8.23
2019-04-26T10:16:14.416Z,8.15
2019-04-26T10:18:44.850Z,7.83
2019-04-26T10:21:13.714Z,8.48
2019-04-26T10:23:42.533Z,7.97
2019-04-26T10:26:11.470Z,7.15
2019-04-26T10:28:40.321Z,8.10
2019-04-26T10:31:09.170Z,8.20
2019-04-26T10:33:38.001Z,8.28
2019-04-26T10:36:06.860Z,7.55
2019-04-26T10:38:35.701Z,7.45
2019-04-26T10:41:05.037Z,7.95
2019-04-26T10:43:33.806Z,7.30
2019-04-26T10:46:02.630Z,7.08
2019-04-26T10:48:31.430Z,8.40
2019-04-26T10:51:03.182Z,7.65
2019-04-26T10:53:50.621Z,7.50
2019-04-26T10:56:38.834Z,7.37
2019-04-26T10:59:09.827Z,7.70
2019-04-26T11:01:39.737Z,7.47
2019-04-26T11:04:08.587Z,13.15
2019-04-26T11:06:38.806Z,8.23
2019-04-26T11:09:10.425Z,8.40
2019-04-26T11:11:40.547Z,8.20
2019-04-26T11:14:09.431Z,8.65
2019-04-26T11:16:41.294Z,8.50
2019-04-26T11:19:09.953Z,8.05
2019-04-26T11:21:38.709Z,7.87
2019-04-26T11:24:07.539Z,8.33
2019-04-26T11:26:36.377Z,8.00
2019-04-26T11:29:05.300Z,7.87
2019-04-26T11:31:34.159Z,8.15
2019-04-26T11:34:05.542Z,6.75
2019-04-26T11:36:33.467Z,6.85
2019-04-26T11:39:05.689Z,6.72
2019-04-26T11:41:33.981Z,7.22
2019-04-26T11:44:02.975Z,6.83
2019-04-26T11:46:44.672Z,6.90
2019-04-26T11:49:07.161Z,6.42
2019-04-26T11:51:36.220Z,6.80
2019-04-26T11:54:12.639Z,6.60
2019-04-26T11:56:41.469Z,6.65
2019-04-26T11:59:10.318Z,6.40
2019-04-26T12:01:40.563Z,6.35
2019-04-26T12:04:17.076Z,6.62
2019-04-26T12:06:56.776Z,8.75
2019-04-26T12:09:27.143Z,7.12
2019-04-26T12:12:04.572Z,6.50
2019-04-26T12:14:29.591Z,6.58
2019-04-26T12:16:59.633Z,6.85
2019-04-26T12:19:27.366Z,6.90
2019-04-26T12:21:56.214Z,7.45
2019-04-26T12:24:25.303Z,6.65
2019-04-26T12:26:56.020Z,6.35
2019-04-26T12:29:26.017Z,6.62
2019-04-26T12:31:54.850Z,6.60
2019-04-26T12:34:23.699Z,6.35
2019-04-26T12:36:52.543Z,6.47
2019-04-26T12:39:22.172Z,7.33
2019-04-26T12:44:19.005Z,8.20
2019-04-26T12:46:52.415Z,7.08
2019-04-26T12:49:24.271Z,7.50
2019-04-26T12:51:52.221Z,6.83
2019-04-26T12:54:21.172Z,7.35
2019-04-26T12:56:49.975Z,7.42
2019-04-26T12:59:22.501Z,7.42
2019-04-26T13:01:49.294Z,7.03
2019-04-26T13:04:18.058Z,6.95
2019-04-26T13:07:02.367Z,6.67
2019-04-26T13:09:32.579Z,6.70
2019-04-26T13:12:02.936Z,7.17
2019-04-26T13:14:49.485Z,7.30
2019-04-26T13:17:31.446Z,7.55
2019-04-26T13:19:59.763Z,7.72
2019-04-26T13:22:28.563Z,7.75
2019-04-26T13:24:58.317Z,7.47
2019-04-26T13:27:27.097Z,7.50
2019-04-26T13:30:02.528Z,7.80
2019-04-26T13:32:26.981Z,7.67
2019-04-26T13:34:55.778Z,6.58
2019-04-26T13:37:24.577Z,6.67
2019-04-26T13:39:55.309Z,7.62
2019-04-26T13:42:23.757Z,7.08
2019-04-26T13:45:00.311Z,6.03
2019-04-26T13:47:30.759Z,7.28
2019-04-26T13:50:04.115Z,6.15
2019-04-26T13:52:32.865Z,6.62
2019-04-26T13:55:01.633Z,6.53
2019-04-26T13:57:30.398Z,6.37
2019-04-26T14:00:02.484Z,7.10
2019-04-26T14:02:29.706Z,7.20
2019-04-26T14:04:58.557Z,8.07
2019-04-26T14:07:27.377Z,8.47
2019-04-26T14:09:56.146Z,8.23
2019-04-26T14:12:24.966Z,8.27
2019-04-26T14:14:53.717Z,8.38
2019-04-26T14:17:26.053Z,8.77
2019-04-26T14:19:53.053Z,8.70
2019-04-26T14:22:23.472Z,8.63
2019-04-26T14:24:57.018Z,8.68
2019-04-26T14:27:25.927Z,9.43
2019-04-26T14:29:54.761Z,8.98
2019-04-26T14:32:24.295Z,9.47
2019-04-26T14:34:52.999Z,8.50
2019-04-26T14:37:21.855Z,8.57
2019-04-26T14:39:51.256Z,8.23
2019-04-26T14:42:32.949Z,9.13
2019-04-26T14:44:51.499Z,9.28
2019-04-26T14:47:20.348Z,9.37
2019-04-26T14:49:49.191Z,9.80
2019-04-26T14:52:17.951Z,9.40
2019-04-26T14:54:47.585Z,9.87
2019-04-26T15:02:17.623Z,9.93
2019-04-26T15:05:09.085Z,9.50
2019-04-26T15:07:35.087Z,9.73
2019-04-26T15:10:06.875Z,9.13
2019-04-26T15:12:46.106Z,9.83
2019-04-26T15:15:08.630Z,8.88
2019-04-26T15:17:37.398Z,9.50
2019-04-26T15:20:06.470Z,8.97
2019-04-26T15:22:35.236Z,9.00
2019-04-26T15:25:11.960Z,9.33
2019-04-26T15:27:38.491Z,8.95
2019-04-26T15:30:07.657Z,8.97
2019-04-26T15:32:36.467Z,9.43
2019-04-26T15:35:05.510Z,9.13
2019-04-26T15:37:34.308Z,8.68
2019-04-26T15:40:07.728Z,8.73
2019-04-26T15:42:38.143Z,9.08
2019-04-26T15:45:13.035Z,9.33
2019-04-26T15:47:58.870Z,8.50
2019-04-26T15:50:30.120Z,10.03
2019-04-26T15:52:58.971Z,9.20
2019-04-26T15:55:27.786Z,8.50
2019-04-26T15:57:56.570Z,8.20
2019-04-26T16:00:28.438Z,6.70
2019-04-26T16:02:58.742Z,4.97
2019-04-26T16:05:29.512Z,5.37
2019-04-26T16:07:57.346Z,5.50
2019-04-26T16:10:29.595Z,5.95
2019-04-26T16:13:01.299Z,5.80
2019-04-26T16:15:28.637Z,6.10
2019-04-26T16:17:57.485Z,5.97
2019-04-26T16:20:26.318Z,6.37
2019-04-26T16:22:55.078Z,6.60
2019-04-26T16:25:23.912Z,6.73
2019-04-26T16:27:57.052Z,5.07
2019-04-26T16:30:32.959Z,6.25
2019-04-26T16:33:08.269Z,6.12
2019-04-26T16:35:37.043Z,6.58
2019-04-26T16:38:25.973Z,6.33
2019-04-26T16:40:55.250Z,6.87
2019-04-26T16:43:36.697Z,6.87
2019-04-26T16:45:54.745Z,7.50
2019-04-26T16:48:25.650Z,8.10
2019-04-26T16:50:54.077Z,7.83
2019-04-26T16:53:37.780Z,7.90
2019-04-26T16:55:53.422Z,7.90
2019-04-26T16:58:24.695Z,7.97
2019-04-26T17:00:57.256Z,8.60
2019-04-26T17:03:26.026Z,8.23
2019-04-26T17:06:04.816Z,8.13
2019-04-26T17:08:24.260Z,8.70
2019-04-26T17:10:56.663Z,9.00
2019-04-26T17:13:29.866Z,8.93
2019-04-26T17:15:58.250Z,8.33
2019-04-26T17:18:27.080Z,8.65
2019-04-26T17:20:54.977Z,9.45
2019-04-26T17:23:29.842Z,8.63
2019-04-26T17:26:13.852Z,9.80
2019-04-26T17:28:42.934Z,9.33
2019-04-26T17:31:12.484Z,9.45
2019-04-26T17:33:41.480Z,10.28
2019-04-26T17:36:11.338Z,10.13
2019-04-26T17:38:50.418Z,9.98
2019-04-26T17:41:17.853Z,9.20
2019-04-26T17:44:06.144Z,9.30
2019-04-26T17:46:24.471Z,10.13
2019-04-26T17:48:53.255Z,9.70
2019-04-26T17:51:23.300Z,10.13
2019-04-26T17:54:19.052Z,9.25
2019-04-26T17:56:26.067Z,9.40
2019-04-26T17:58:54.760Z,9.48
2019-04-26T18:01:41.985Z,9.43
2019-04-26T18:03:55.944Z,9.50
2019-04-26T18:06:29.799Z,9.65
2019-04-26T18:08:58.201Z,10.05
2019-04-26T18:11:27.022Z,9.63
2019-04-26T18:13:58.510Z,9.40
2019-04-26T18:16:29.534Z,9.75
2019-04-26T18:19:02.346Z,9.40
2019-04-26T18:21:31.397Z,10.45
2019-04-26T18:24:00.243Z,10.20
2019-04-26T18:26:29.074Z,10.47
2019-04-26T18:28:57.842Z,10.33
2019-04-26T18:31:28.650Z,9.83
2019-04-26T18:34:00.798Z,10.45
2019-04-26T18:36:32.061Z,10.10
2019-04-26T18:38:58.313Z,10.03
2019-04-26T18:41:28.806Z,10.05
2019-04-26T18:43:59.870Z,10.95
2019-04-26T18:46:35.676Z,9.58
2019-04-26T18:49:04.479Z,10.60
2019-04-26T18:54:20.219Z,9.23
2019-04-26T18:56:50.634Z,10.35
2019-04-26T18:59:19.475Z,10.23
2019-04-26T19:01:48.310Z,10.17
2019-04-26T19:04:17.157Z,10.30
2019-04-26T19:06:45.963Z,10.03
2019-04-26T19:09:17.303Z,9.83
2019-04-26T19:11:48.513Z,10.32
2019-04-26T19:14:18.158Z,9.73
2019-04-26T19:16:56.488Z,10.15
2019-04-26T19:19:26.318Z,10.28
2019-04-26T19:22:01.527Z,10.48
2019-04-26T19:24:30.007Z,10.00
2019-04-26T19:26:58.781Z,10.00
2019-04-26T19:29:33.658Z,9.63
2019-04-26T19:32:01.483Z,10.08
2019-04-26T19:34:30.159Z,9.73
2019-04-26T19:36:59.808Z,10.10
2019-04-26T19:39:33.203Z,11.10
2019-04-26T19:42:00.170Z,9.98
2019-04-26T19:44:29.026Z,9.37
2019-04-26T19:47:05.340Z,9.73
2019-04-26T19:49:40.016Z,9.68
2019-04-26T19:52:28.028Z,9.48
2019-04-26T19:55:14.540Z,10.25
2019-04-26T19:57:45.264Z,10.40
2019-04-26T20:00:14.784Z,10.55
2019-04-26T20:02:43.640Z,10.55
2019-04-26T20:05:12.481Z,9.93
2019-04-26T20:07:41.597Z,11.10
2019-04-26T20:10:10.841Z,10.95
2019-04-26T20:12:40.968Z,11.83
2019-04-26T20:15:24.902Z,11.70
2019-04-26T20:17:40.804Z,11.95
2019-04-26T20:20:18.911Z,11.63
2019-04-26T20:22:42.026Z,12.10
2019-04-26T20:25:11.943Z,12.05
2019-04-26T20:30:12.603Z,11.20
2019-04-26T20:32:44.619Z,10.93
2019-04-26T20:35:19.657Z,10.88
2019-04-26T20:37:47.400Z,11.18
2019-04-26T20:40:21.836Z,10.63
2019-04-26T20:42:47.020Z,10.30
2019-04-26T20:45:16.977Z,10.13
2019-04-26T20:47:46.668Z,10.63
2019-04-26T20:50:16.675Z,10.85
2019-04-26T20:52:45.741Z,10.60
2019-04-26T20:55:14.748Z,10.25
2019-04-26T20:57:44.865Z,11.27
2019-04-26T21:00:14.358Z,11.12
2019-04-26T21:02:43.177Z,11.20
2019-04-26T21:05:14.742Z,11.30
2019-04-26T21:07:49.457Z,11.60
2019-04-26T21:10:20.865Z,11.95
2019-04-26T21:12:47.428Z,11.78
2019-04-26T21:15:15.672Z,10.70
2019-04-26T21:17:45.103Z,11.08
2019-04-26T21:20:14.223Z,11.97
2019-04-26T21:22:43.065Z,11.50
2019-04-26T21:25:16.213Z,11.70
2019-04-26T21:27:52.432Z,10.93
2019-04-26T21:30:29.619Z,11.90
2019-04-26T21:33:16.856Z,11.43
2019-04-26T21:35:53.261Z,11.50
2019-04-26T21:41:10.812Z,10.58
2019-04-26T21:43:34.827Z,11.05
2019-04-26T21:46:08.399Z,11.85
2019-04-26T21:48:37.334Z,11.25
2019-04-26T21:51:04.515Z,12.00
2019-04-26T21:53:34.496Z,11.68
2019-04-26T21:56:07.473Z,11.75
2019-04-26T21:58:34.202Z,11.15
2019-04-26T22:01:04.609Z,11.27
2019-04-26T22:03:33.842Z,11.15
2019-04-26T22:06:04.135Z,12.03
2019-04-26T22:08:37.503Z,10.08
2019-04-26T22:11:06.344Z,10.82
2019-04-26T22:13:45.351Z,11.10
2019-04-26T22:16:34.123Z,11.18
2019-04-26T22:19:03.924Z,11.22
2019-04-26T22:21:34.336Z,10.43
2019-04-26T22:24:05.944Z,11.57
2019-04-26T22:26:38.091Z,11.12
2019-04-26T22:29:08.059Z,11.12
2019-04-26T22:31:37.983Z,12.13
2019-04-26T22:34:08.522Z,11.30
2019-04-26T22:36:37.112Z,11.30
2019-04-26T22:39:09.574Z,12.18
2019-04-26T22:41:38.348Z,11.38
2019-04-26T22:44:08.740Z,12.58
2019-04-26T22:46:48.823Z,11.93
2019-04-26T22:49:15.036Z,12.90
2019-04-26T22:51:43.803Z,12.15
2019-04-26T22:54:12.569Z,12.25
2019-04-26T22:56:41.403Z,12.15
2019-04-26T22:59:10.259Z,12.57
2019-04-26T23:01:43.643Z,13.40
2019-04-26T23:04:09.587Z,12.63
2019-04-26T23:06:38.342Z,13.10
2019-04-26T23:09:11.485Z,13.58
2019-04-26T23:11:45.325Z,12.20
2019-04-26T23:14:19.168Z,13.15
2019-04-26T23:17:01.744Z,12.65
2019-04-26T23:19:30.665Z,12.10
2019-04-26T23:22:00.506Z,13.83
2019-04-26T23:26:57.252Z,13.30
2019-04-26T23:29:26.082Z,14.38
2019-04-26T23:31:55.543Z,14.43
2019-04-26T23:34:25.281Z,14.50
2019-04-26T23:39:24.636Z,13.18
2019-04-26T23:41:54.094Z,13.50
2019-04-26T23:44:23.250Z,13.60
2019-04-26T23:46:54.980Z,13.50
2019-04-26T23:49:23.311Z,12.70
2019-04-26T23:51:53.337Z,13.03
2019-04-26T23:54:23.877Z,12.75
2019-04-26T23:56:55.688Z,12.60
2019-04-26T23:59:24.659Z,12.75
